NWK1610 YPPH-YPKG
Flight info
| Callsign | NWK1610 |
|---|---|
| Flight time | 0h 46m |
| Altitude | 33000 |
| Route | AMANA Y31 LAKIR Y69 BOSLI Y67 KG |
| Aircraft | A320/M-SDE3FGHIRWYZ/LB1 |
Departure
| Time | 2026-04-26 09:16 |
|---|---|
| Airport | Perth International Airport (YPPH) |
Arrival
| Time | 2026-04-26 10:02 |
|---|---|
| Airport | Kalgoorlie Boulder Airport (YPKG) |
| Time | Latitude | Longitude | Altitude | Speed | Heading |
|---|---|---|---|---|---|
| 2026-04-26 08:58 | -31.93505 | 115.96133 | 59 ft | 0 kts | 300° |
| 2026-04-26 09:11 | -31.93515 | 115.96154 | 68 ft | 4 kts | 300° |
| 2026-04-26 09:11 | -31.93529 | 115.96181 | 68 ft | 4 kts | 300° |
| 2026-04-26 09:11 | -31.93536 | 115.96207 | 59 ft | 4 kts | 246° |
| 2026-04-26 09:11 | -31.93520 | 115.96228 | 68 ft | 3 kts | 209° |
| 2026-04-26 09:12 | -31.93529 | 115.96221 | 64 ft | 4 kts | 216° |
| 2026-04-26 09:12 | -31.93539 | 115.96215 | 68 ft | 0 kts | 208° |
| 2026-04-26 09:13 | -31.93553 | 115.96207 | 68 ft | 3 kts | 201° |
| 2026-04-26 09:13 | -31.93586 | 115.96198 | 68 ft | 6 kts | 194° |
| 2026-04-26 09:14 | -31.93639 | 115.96182 | 64 ft | 9 kts | 194° |
| 2026-04-26 09:14 | -31.93712 | 115.96183 | 61 ft | 12 kts | 170° |
| 2026-04-26 09:14 | -31.93791 | 115.96147 | 64 ft | 15 kts | 240° |
| 2026-04-26 09:14 | -31.93827 | 115.96074 | 66 ft | 16 kts | 239° |
| 2026-04-26 09:15 | -31.93891 | 115.95948 | 65 ft | 20 kts | 238° |
| 2026-04-26 09:15 | -31.94005 | 115.95872 | 62 ft | 16 kts | 154° |
| 2026-04-26 09:15 | -31.94071 | 115.95918 | 68 ft | 16 kts | 148° |
| 2026-04-26 09:15 | -31.94029 | 115.96056 | 61 ft | 40 kts | 58° |
| 2026-04-26 09:16 | -31.93875 | 115.96359 | 69 ft | 89 kts | 59° |
| 2026-04-26 09:16 | -31.93254 | 115.97544 | 183 ft | 150 kts | 59° |
| 2026-04-26 09:16 | -31.92884 | 115.98234 | 562 ft | 152 kts | 59° |
| 2026-04-26 09:16 | -31.92132 | 115.99666 | 1425 ft | 156 kts | 61° |
| 2026-04-26 09:17 | -31.91757 | 116.00410 | 1863 ft | 160 kts | 61° |
| 2026-04-26 09:17 | -31.91152 | 116.01617 | 2275 ft | 182 kts | 60° |
| 2026-04-26 09:17 | -31.90465 | 116.02982 | 2615 ft | 206 kts | 60° |
| 2026-04-26 09:17 | -31.89689 | 116.04516 | 3052 ft | 231 kts | 59° |
| 2026-04-26 09:18 | -31.88823 | 116.06224 | 3615 ft | 253 kts | 59° |
| 2026-04-26 09:18 | -31.87904 | 116.08026 | 4516 ft | 261 kts | 59° |
| 2026-04-26 09:18 | -31.86962 | 116.09871 | 5504 ft | 265 kts | 59° |
| 2026-04-26 09:18 | -31.86016 | 116.11754 | 6468 ft | 270 kts | 62° |
| 2026-04-26 09:19 | -31.85337 | 116.13835 | 7395 ft | 276 kts | 75° |
| 2026-04-26 09:19 | -31.84907 | 116.16057 | 8289 ft | 282 kts | 76° |
| 2026-04-26 09:19 | -31.84472 | 116.18334 | 9149 ft | 288 kts | 76° |
| 2026-04-26 09:19 | -31.84033 | 116.20623 | 9970 ft | 294 kts | 76° |
| 2026-04-26 09:20 | -31.83568 | 116.23042 | 10402 ft | 315 kts | 75° |
| 2026-04-26 09:20 | -31.83063 | 116.25646 | 10650 ft | 338 kts | 75° |
| 2026-04-26 09:20 | -31.82526 | 116.28402 | 11141 ft | 351 kts | 75° |
| 2026-04-26 09:20 | -31.81976 | 116.31218 | 11851 ft | 356 kts | 75° |
| 2026-04-26 09:21 | -31.81418 | 116.34073 | 12611 ft | 360 kts | 75° |
| 2026-04-26 09:21 | -31.80856 | 116.36954 | 13361 ft | 363 kts | 75° |
| 2026-04-26 09:21 | -31.80285 | 116.39865 | 14078 ft | 367 kts | 75° |
| 2026-04-26 09:21 | -31.79708 | 116.42804 | 14759 ft | 371 kts | 75° |
| 2026-04-26 09:22 | -31.79125 | 116.45776 | 15422 ft | 375 kts | 75° |
| 2026-04-26 09:22 | -31.78536 | 116.48782 | 16077 ft | 379 kts | 75° |
| 2026-04-26 09:22 | -31.77938 | 116.51814 | 16718 ft | 383 kts | 75° |
| 2026-04-26 09:22 | -31.77333 | 116.54873 | 17357 ft | 386 kts | 75° |
| 2026-04-26 09:23 | -31.76727 | 116.57964 | 17988 ft | 391 kts | 75° |
| 2026-04-26 09:23 | -31.75929 | 116.61023 | 18613 ft | 393 kts | 65° |
| 2026-04-26 09:23 | -31.74651 | 116.63872 | 19218 ft | 396 kts | 55° |
| 2026-04-26 09:23 | -31.72930 | 116.66410 | 19794 ft | 399 kts | 45° |
| 2026-04-26 09:24 | -31.70999 | 116.68785 | 20356 ft | 405 kts | 44° |
| 2026-04-26 09:24 | -31.69037 | 116.71190 | 20890 ft | 410 kts | 44° |
| 2026-04-26 09:24 | -31.67049 | 116.73626 | 21405 ft | 416 kts | 44° |
| 2026-04-26 09:24 | -31.65070 | 116.76058 | 21901 ft | 421 kts | 44° |
| 2026-04-26 09:25 | -31.63034 | 116.78564 | 22380 ft | 426 kts | 44° |
| 2026-04-26 09:25 | -31.60980 | 116.81096 | 22839 ft | 431 kts | 44° |
| 2026-04-26 09:25 | -31.58903 | 116.83658 | 23280 ft | 436 kts | 44° |
| 2026-04-26 09:25 | -31.56814 | 116.86264 | 23706 ft | 441 kts | 47° |
| 2026-04-26 09:26 | -31.54976 | 116.89176 | 24121 ft | 448 kts | 57° |
| 2026-04-26 09:26 | -31.53492 | 116.92411 | 24532 ft | 453 kts | 62° |
| 2026-04-26 09:26 | -31.52054 | 116.95718 | 24946 ft | 457 kts | 62° |
| 2026-04-26 09:26 | -31.50607 | 116.99046 | 25348 ft | 460 kts | 61° |
| 2026-04-26 09:27 | -31.49145 | 117.02400 | 25761 ft | 463 kts | 61° |
| 2026-04-26 09:27 | -31.47669 | 117.05771 | 26148 ft | 467 kts | 61° |
| 2026-04-26 09:27 | -31.46178 | 117.09161 | 26529 ft | 470 kts | 61° |
| 2026-04-26 09:27 | -31.44675 | 117.12573 | 26907 ft | 473 kts | 61° |
| 2026-04-26 09:28 | -31.43158 | 117.16008 | 27274 ft | 476 kts | 61° |
| 2026-04-26 09:28 | -31.41635 | 117.19461 | 27648 ft | 479 kts | 61° |
| 2026-04-26 09:28 | -31.40103 | 117.22936 | 28013 ft | 482 kts | 61° |
| 2026-04-26 09:28 | -31.38560 | 117.26439 | 28377 ft | 485 kts | 61° |
| 2026-04-26 09:29 | -31.37009 | 117.29961 | 28733 ft | 488 kts | 61° |
| 2026-04-26 09:29 | -31.35446 | 117.33504 | 29081 ft | 491 kts | 61° |
| 2026-04-26 09:29 | -31.33871 | 117.37060 | 29412 ft | 494 kts | 61° |
| 2026-04-26 09:29 | -31.32280 | 117.40636 | 29726 ft | 497 kts | 60° |
| 2026-04-26 09:30 | -31.30677 | 117.44237 | 30044 ft | 500 kts | 61° |
| 2026-04-26 09:30 | -31.29089 | 117.47809 | 30348 ft | 503 kts | 60° |
| 2026-04-26 09:30 | -31.27471 | 117.51447 | 30676 ft | 505 kts | 60° |
| 2026-04-26 09:30 | -31.25866 | 117.55098 | 31106 ft | 505 kts | 61° |
| 2026-04-26 09:31 | -31.24329 | 117.58769 | 31600 ft | 502 kts | 62° |
| 2026-04-26 09:31 | -31.22849 | 117.62451 | 32132 ft | 499 kts | 62° |
| 2026-04-26 09:31 | -31.21402 | 117.66125 | 32602 ft | 498 kts | 62° |
| 2026-04-26 09:31 | -31.19955 | 117.69794 | 32962 ft | 499 kts | 62° |
| 2026-04-26 09:32 | -31.18488 | 117.73470 | 33089 ft | 498 kts | 62° |
| 2026-04-26 09:32 | -31.15517 | 117.80766 | 33111 ft | 496 kts | 61° |
| 2026-04-26 09:33 | -31.12527 | 117.88018 | 33119 ft | 496 kts | 61° |
| 2026-04-26 09:33 | -31.09539 | 117.95271 | 33118 ft | 496 kts | 61° |
| 2026-04-26 09:34 | -31.06556 | 118.02520 | 33119 ft | 496 kts | 61° |
| 2026-04-26 09:34 | -31.03579 | 118.09764 | 33114 ft | 496 kts | 62° |
| 2026-04-26 09:35 | -31.00595 | 118.17007 | 33116 ft | 496 kts | 62° |
| 2026-04-26 09:35 | -30.97617 | 118.24205 | 33116 ft | 496 kts | 62° |
| 2026-04-26 09:36 | -30.94611 | 118.31446 | 33115 ft | 497 kts | 62° |
| 2026-04-26 09:36 | -30.91609 | 118.38690 | 33118 ft | 497 kts | 62° |
| 2026-04-26 09:37 | -30.88603 | 118.45935 | 33124 ft | 497 kts | 62° |
| 2026-04-26 09:37 | -30.85583 | 118.53173 | 33125 ft | 497 kts | 62° |
| 2026-04-26 09:38 | -30.82569 | 118.60413 | 33128 ft | 497 kts | 62° |
| 2026-04-26 09:38 | -30.79553 | 118.67649 | 33135 ft | 497 kts | 62° |
| 2026-04-26 09:39 | -30.76520 | 118.74881 | 33137 ft | 497 kts | 62° |
| 2026-04-26 09:39 | -30.73488 | 118.82117 | 33137 ft | 499 kts | 64° |
| 2026-04-26 09:40 | -30.71602 | 118.89869 | 33137 ft | 502 kts | 83° |
| 2026-04-26 09:40 | -30.71189 | 118.97969 | 33141 ft | 502 kts | 87° |
| 2026-04-26 09:41 | -30.70840 | 119.06014 | 33144 ft | 502 kts | 87° |
| 2026-04-26 09:41 | -30.70473 | 119.14124 | 33142 ft | 503 kts | 87° |
| 2026-04-26 09:42 | -30.70100 | 119.22239 | 33147 ft | 503 kts | 87° |
| 2026-04-26 09:42 | -30.69729 | 119.30364 | 33153 ft | 504 kts | 87° |
| 2026-04-26 09:43 | -30.69362 | 119.38488 | 33163 ft | 504 kts | 87° |
| 2026-04-26 09:43 | -30.68987 | 119.46614 | 33165 ft | 504 kts | 87° |
| 2026-04-26 09:44 | -30.68601 | 119.54739 | 33167 ft | 504 kts | 87° |
| 2026-04-26 09:44 | -30.68208 | 119.62866 | 33167 ft | 504 kts | 87° |
| 2026-04-26 09:44 | -30.68009 | 119.66927 | 33037 ft | 504 kts | 87° |
| 2026-04-26 09:45 | -30.67806 | 119.70985 | 32453 ft | 503 kts | 87° |
| 2026-04-26 09:45 | -30.67604 | 119.75093 | 31137 ft | 514 kts | 87° |
| 2026-04-26 09:45 | -30.67400 | 119.79247 | 29957 ft | 517 kts | 86° |
| 2026-04-26 09:45 | -30.67193 | 119.83427 | 28988 ft | 515 kts | 86° |
| 2026-04-26 09:46 | -30.66990 | 119.87532 | 28380 ft | 505 kts | 86° |
| 2026-04-26 09:46 | -30.66786 | 119.91575 | 27600 ft | 500 kts | 86° |
| 2026-04-26 09:46 | -30.66583 | 119.95585 | 26858 ft | 494 kts | 86° |
| 2026-04-26 09:46 | -30.66383 | 119.99496 | 26128 ft | 489 kts | 86° |
| 2026-04-26 09:47 | -30.66179 | 120.03414 | 25393 ft | 483 kts | 86° |
| 2026-04-26 09:47 | -30.65975 | 120.07286 | 24667 ft | 478 kts | 86° |
| 2026-04-26 09:47 | -30.65774 | 120.11115 | 23954 ft | 473 kts | 86° |
| 2026-04-26 09:47 | -30.65578 | 120.14904 | 23262 ft | 467 kts | 86° |
| 2026-04-26 09:48 | -30.65383 | 120.18637 | 22588 ft | 461 kts | 86° |
| 2026-04-26 09:48 | -30.65187 | 120.22328 | 21945 ft | 454 kts | 86° |
| 2026-04-26 09:48 | -30.64991 | 120.25962 | 21331 ft | 447 kts | 86° |
| 2026-04-26 09:48 | -30.64796 | 120.29542 | 20730 ft | 441 kts | 86° |
| 2026-04-26 09:49 | -30.64604 | 120.33071 | 20140 ft | 435 kts | 86° |
| 2026-04-26 09:49 | -30.64418 | 120.36557 | 19549 ft | 430 kts | 86° |
| 2026-04-26 09:49 | -30.64236 | 120.40003 | 18957 ft | 426 kts | 86° |
| 2026-04-26 09:49 | -30.64051 | 120.43420 | 18348 ft | 422 kts | 85° |
| 2026-04-26 09:50 | -30.63864 | 120.46813 | 17737 ft | 419 kts | 85° |
| 2026-04-26 09:50 | -30.63678 | 120.50177 | 17206 ft | 414 kts | 85° |
| 2026-04-26 09:50 | -30.63495 | 120.53505 | 16537 ft | 412 kts | 85° |
| 2026-04-26 09:50 | -30.63312 | 120.56803 | 15871 ft | 409 kts | 85° |
| 2026-04-26 09:51 | -30.63128 | 120.60075 | 15302 ft | 403 kts | 85° |
| 2026-04-26 09:51 | -30.62950 | 120.63277 | 14537 ft | 389 kts | 85° |
| 2026-04-26 09:51 | -30.62783 | 120.66327 | 13940 ft | 369 kts | 85° |
| 2026-04-26 09:51 | -30.62621 | 120.69232 | 13356 ft | 353 kts | 85° |
| 2026-04-26 09:52 | -30.62466 | 120.71983 | 12801 ft | 340 kts | 85° |
| 2026-04-26 09:52 | -30.62149 | 120.77452 | 11699 ft | 338 kts | 85° |
| 2026-04-26 09:52 | -30.61988 | 120.80169 | 11149 ft | 338 kts | 85° |
| 2026-04-26 09:53 | -30.61826 | 120.82882 | 10758 ft | 333 kts | 85° |
| 2026-04-26 09:53 | -30.61672 | 120.85511 | 10631 ft | 320 kts | 85° |
| 2026-04-26 09:53 | -30.61526 | 120.88041 | 10492 ft | 309 kts | 85° |
| 2026-04-26 09:53 | -30.61514 | 120.90505 | 10231 ft | 304 kts | 96° |
| 2026-04-26 09:54 | -30.61986 | 120.92866 | 10138 ft | 299 kts | 110° |
| 2026-04-26 09:54 | -30.62715 | 120.95127 | 10019 ft | 299 kts | 110° |
| 2026-04-26 09:54 | -30.63446 | 120.97402 | 9534 ft | 305 kts | 110° |
| 2026-04-26 09:54 | -30.64178 | 120.99698 | 9245 ft | 298 kts | 110° |
| 2026-04-26 09:55 | -30.64891 | 121.01940 | 8599 ft | 295 kts | 110° |
| 2026-04-26 09:55 | -30.65596 | 121.04160 | 7950 ft | 292 kts | 110° |
| 2026-04-26 09:55 | -30.66289 | 121.06351 | 7351 ft | 287 kts | 109° |
| 2026-04-26 09:55 | -30.66973 | 121.08520 | 6752 ft | 283 kts | 109° |
| 2026-04-26 09:56 | -30.67641 | 121.10633 | 6393 ft | 270 kts | 109° |
| 2026-04-26 09:56 | -30.68254 | 121.12565 | 6331 ft | 247 kts | 109° |
| 2026-04-26 09:56 | -30.68822 | 121.14352 | 6268 ft | 225 kts | 109° |
| 2026-04-26 09:56 | -30.69340 | 121.15979 | 6185 ft | 206 kts | 109° |
| 2026-04-26 09:57 | -30.69823 | 121.17506 | 6100 ft | 199 kts | 108° |
| 2026-04-26 09:57 | -30.70302 | 121.19021 | 5849 ft | 203 kts | 109° |
| 2026-04-26 09:57 | -30.70800 | 121.20575 | 5456 ft | 208 kts | 109° |
| 2026-04-26 09:57 | -30.71310 | 121.22160 | 5080 ft | 212 kts | 109° |
| 2026-04-26 09:58 | -30.71832 | 121.23780 | 4698 ft | 216 kts | 109° |
| 2026-04-26 09:58 | -30.72364 | 121.25429 | 4313 ft | 219 kts | 109° |
| 2026-04-26 09:58 | -30.72905 | 121.27101 | 3926 ft | 223 kts | 109° |
| 2026-04-26 09:58 | -30.73453 | 121.28787 | 3527 ft | 220 kts | 109° |
| 2026-04-26 09:59 | -30.73981 | 121.30412 | 3179 ft | 208 kts | 109° |
| 2026-04-26 09:59 | -30.74308 | 121.31419 | 3147 ft | 196 kts | 109° |
| 2026-04-26 09:59 | -30.74930 | 121.33349 | 3072 ft | 187 kts | 109° |
| 2026-04-26 09:59 | -30.75383 | 121.34759 | 3000 ft | 185 kts | 109° |
| 2026-04-26 10:00 | -30.75833 | 121.36156 | 2921 ft | 184 kts | 109° |
| 2026-04-26 10:00 | -30.76273 | 121.37516 | 2698 ft | 174 kts | 109° |
| 2026-04-26 10:00 | -30.76687 | 121.38793 | 2436 ft | 165 kts | 109° |
| 2026-04-26 10:00 | -30.77082 | 121.40009 | 2214 ft | 156 kts | 109° |
| 2026-04-26 10:01 | -30.77453 | 121.41152 | 2028 ft | 143 kts | 109° |
| 2026-04-26 10:01 | -30.77790 | 121.42212 | 1852 ft | 137 kts | 109° |
| 2026-04-26 10:01 | -30.78122 | 121.43236 | 1661 ft | 134 kts | 108° |
| 2026-04-26 10:01 | -30.78436 | 121.44255 | 1494 ft | 134 kts | 109° |
| 2026-04-26 10:02 | -30.78762 | 121.45263 | 1287 ft | 133 kts | 109° |
| 2026-04-26 10:02 | -30.79070 | 121.46235 | 1213 ft | 115 kts | 110° |
| 2026-04-26 10:02 | -30.79291 | 121.46911 | 1212 ft | 65 kts | 110° |
| 2026-04-26 10:02 | -30.79403 | 121.47259 | 1212 ft | 36 kts | 111° |
| 2026-04-26 10:03 | -30.79429 | 121.47398 | 1211 ft | 11 kts | 101° |
| 2026-04-26 10:03 | -30.79451 | 121.47366 | 1211 ft | 9 kts | 294° |
| 2026-04-26 10:03 | -30.79417 | 121.47296 | 1212 ft | 11 kts | 296° |
| 2026-04-26 10:03 | -30.79389 | 121.47205 | 1212 ft | 13 kts | 289° |
| 2026-04-26 10:04 | -30.79355 | 121.47092 | 1212 ft | 16 kts | 289° |
| 2026-04-26 10:04 | -30.79316 | 121.46958 | 1212 ft | 19 kts | 290° |
| 2026-04-26 10:04 | -30.79261 | 121.46807 | 1211 ft | 22 kts | 293° |
| 2026-04-26 10:04 | -30.79202 | 121.46624 | 1210 ft | 26 kts | 290° |
| 2026-04-26 10:05 | -30.79137 | 121.46424 | 1210 ft | 26 kts | 290° |
| 2026-04-26 10:05 | -30.79073 | 121.46219 | 1212 ft | 27 kts | 290° |
| 2026-04-26 10:05 | -30.79017 | 121.46052 | 1213 ft | 23 kts | 291° |
| 2026-04-26 10:05 | -30.78966 | 121.45895 | 1214 ft | 22 kts | 290° |
| 2026-04-26 10:06 | -30.78918 | 121.45742 | 1214 ft | 19 kts | 290° |
| 2026-04-26 10:06 | -30.78838 | 121.45724 | 1213 ft | 16 kts | 21° |
| 2026-04-26 10:06 | -30.78738 | 121.45767 | 1212 ft | 12 kts | 20° |
| 2026-04-26 10:06 | -30.78650 | 121.45795 | 1212 ft | 14 kts | 350° |
| 2026-04-26 10:07 | -30.78596 | 121.45736 | 1212 ft | 6 kts | 313° |
| 2026-04-26 10:07 | -30.78584 | 121.45725 | 1212 ft | 3 kts | 326° |
| 2026-04-26 10:07 | -30.78576 | 121.45725 | 1212 ft | 1 kts | 356° |
| 2026-04-26 10:07 | -30.78575 | 121.45740 | 1212 ft | 0 kts | 54° |
| 2026-04-26 10:08 | -30.78573 | 121.45743 | 1212 ft | 0 kts | 58° |